Worth, West Virginia
Current Conditions -  °F | °C
As of 4:52 PM on Thursday 27 Nov 2014 (Local Time) from KBLF Reporting Station
Light Snow Light Snow  
Wind Chill: 18°   Ceiling: 1300
Heat Index: 29°   Visibility: 6mi
Dew Point: 22°   Wind: 15mph
Humidity: 75%   Direction: 290°WNW
Pressure: 30.14"   Gusts: 25mph
Location:  37.41°N, 81.39°W
Report Text: KBLF 272152Z AUTO 29013G22KT 6SM -SN OVC013 M02/M06 A3014 RMK AO2 SNB39 SLP224 P0000 T10171056 $
Loading
Personal Weather Stations






























Interactive Weather Map New forecast layout! Learn more

10-Day Weather Forecast

Advertisements
Track Severe Weather on mobile